Bataysk, Russia
Current Conditions -  °F | °C
As of 7:30 PM on Tuesday 21 Oct 2014 (Local Time) from URRR Reporting Station
Broken Clouds Broken Clouds  
Wind Chill: 55°   Ceiling: 1700
Heat Index: 55°   Visibility: 6mi
Dew Point: 50°   Wind: 16mph
Humidity: 82%   Direction: 240°WSW
Pressure: 29.77"   Gusts: 22mph
Location:  47.14°N, 39.75°E
Report Text: URRR 211630Z 24007G10MPS 9999 BKN017 13/10 Q1008 22120060NOSIG
Loading
Personal Weather Stations






























Interactive Weather Map
Tropical Storm Tracking
New forecast layout! Learn more

10-Day Weather Forecast

Advertisements
Track Severe Weather on mobile